Estación Meteorológica Peña el Pijo (Robertgarden) [ 06/25/17 17:33:14 CEST ]

Fecha Hora Presion(HPa) Temp (°C) Humedad % Rocio (°C) Viento ( m/s) Direccion Lluvia 1Hora(mm) Lluvia 24H(mm) LLuvia Total(mm)
2017-Jun-23 01:01:53 1016.000 18.3 61 10.6         1427.60
2017-Jun-23 02:01:42 1015.800 17.2 65 10.5         1427.60
2017-Jun-23 03:01:34 1015.700 16.3 68 10.4         1427.60
2017-Jun-23 04:01:34 1015.500 16.6 68 10.7         1427.60
2017-Jun-23 05:01:39 1015.600 17.4 64 10.5         1427.60
2017-Jun-23 06:01:32 1015.600 17.6 60 9.7         1427.60
2017-Jun-23 07:01:47 1016.000 17.0 63 9.9         1427.60
2017-Jun-23 08:01:46 1016.400 19.3 63 12.1         1427.60
2017-Jun-23 09:01:55 1016.700 25.3 52 14.7         1427.60
2017-Jun-23 10:01:54 1016.700 28.6 39 13.3         1427.60
2017-Jun-23 11:01:41 1016.500 33.1 31 13.7         1427.60
2017-Jun-23 12:01:46 1016.300 35.8 26 13.1         1427.60
2017-Jun-23 13:01:50 1015.900 37.3 26 14.4         1427.60
2017-Jun-23 14:01:53 1015.600 37.7 23 12.8         1427.60
2017-Jun-23 15:01:46 1015.200 37.3 23 12.5         1427.60
2017-Jun-23 16:01:58 1014.700 39.3 20 12.2         1427.60
2017-Jun-23 17:01:37 1014.500 39.4 19 11.3         1427.60
2017-Jun-23 18:01:48 1014.200 38.4 21 12.1         1427.60
2017-Jun-23 19:01:40 1014.200 34.0 27 12.2         1427.60
2017-Jun-23 20:01:39 1014.100 33.0 30 13.2         1427.60
2017-Jun-23 21:01:40 1014.700 29.3 35 12.2         1427.60
2017-Jun-23 22:01:47 1015.500 25.8 40 11.2         1427.60
2017-Jun-23 23:01:56 1016.200 21.8 47 9.9         1427.60

Temperatura Máxima:39°    Temperatura Mínima:16°
Presión Máxima:1016.700 Hpa    Presión Mínima:1014.100 Hpa


Volver